Tropical Cyclones
[Index]
Main Index Home Page Stock Weather Photos Extreme Storms Discussion Storm News and Storm Chasing Reports Tropical Cyclones / Hurricanes / Typhoons Weather Data and Links Wild Fires / Bushfires Weather Observation Techniques Weather Picture Catalogue Tornado Pictures and Reports Stock Video Footage and DVDs for sale
Season 2008-2009 Tropical Cyclone GABRIELLE Track Map
Season 2008-2009 Summaries: [BoM-AU] [JTWC-AU] [JTWC-SIO] [JTWC-SPAC] [JTWC-SH]
<<- Previous TC | BoM 2008-2009 Season | Next TC ->>

click for intensity scale information  Lat/long Grid: Show Hide

 Date Labels: Show Hide

Bureau of Meteorology Tropical Cyclone Data

Name: GABRIELLE
Number: 925 / 200809_16

28 Feb 2009 00:00 UTC to 06 Mar 2009 00:00 UTC

    date/time    lat    long    hPa   cat  kts
2009-02-28 00    9.7   101.2   1002         25          
2009-02-28 06   10.1   101.1   1002         25          
2009-02-28 12   10.4   101.2   1002         25          
2009-02-28 15   10.6   101.2   1002                     
2009-02-28 18   10.7   101.2   1000         30          
2009-03-01 00   10.9   101.2    998         35          
2009-03-01 06   11.3   102.3    996         35          
2009-03-01 12   12.1   103.7    996         35          
2009-03-01 18   12.8   104.7    996         35          
2009-03-02 00   13.6   105.5    996         35          
2009-03-02 03   13.9   105.8    996                     
2009-03-02 06   14.0   106.0    996         35          
2009-03-02 12   13.6   106.7    996         35          
2009-03-02 15   13.5   107.0    996         35          
2009-03-02 18   13.5   107.2    996         35          
2009-03-02 21   13.5   107.5    998                     
2009-03-03 00   13.7   107.8   1000         30          
2009-03-03 03   14.0   107.9   1000         30          
2009-03-03 06   14.3   107.8   1000         30          
2009-03-03 09   14.5   107.7   1000         30          
2009-03-03 12   14.4   107.2   1000         30          
2009-03-03 15   14.1   106.8   1000         30          
2009-03-03 18   14.3   106.4   1000         30          
2009-03-03 21   14.5   106.0   1001         30          
2009-03-04 00   14.8   105.7   1002         30          
2009-03-04 03   15.4   105.6   1002                     
2009-03-04 06   16.0   104.9   1002         30          
2009-03-04 12   16.6   102.8   1002         30          
2009-03-04 17   16.4   101.8                            
2009-03-04 18   16.5   101.6   1002         30          
2009-03-04 19   16.6   101.4                            
2009-03-04 22   16.8   100.8                            
2009-03-05 00   17.0   100.3   1002         30          
2009-03-05 06   18.5    98.7   1002         30          
2009-03-05 12   19.4    96.6   1004         30          
2009-03-05 18   20.6    94.6   1006         30          
2009-03-06 00   21.5    93.1   1006         25          
Winds are 10-min average.

Tropical cyclone tracks developed by Michael Bath using data from the Bureau of Meteorology and Google Maps.


[Australian Severe Weather index] [Copyright Notice] [Email Contacts] [Search This Site] [Privacy Policy]
Document: tropical_cyclone_gabrielle.htm Updated: 29 June 2017